createdAt,value
2023-04-30T00:02:17.605Z,8.87
2023-04-30T00:04:44.322Z,9.10
2023-04-30T00:07:11.486Z,8.33
2023-04-30T00:09:39.354Z,8.77
2023-04-30T00:12:06.505Z,9.30
2023-04-30T00:14:35.151Z,9.23
2023-04-30T00:17:01.856Z,9.37
2023-04-30T00:19:28.492Z,9.23
2023-04-30T00:21:55.371Z,7.43
2023-04-30T00:24:22.291Z,7.97
2023-04-30T00:26:48.923Z,8.03
2023-04-30T00:29:15.712Z,7.77
2023-04-30T00:31:42.562Z,8.50
2023-04-30T00:34:09.317Z,9.57
2023-04-30T00:36:35.951Z,8.57
2023-04-30T00:39:02.640Z,9.40
2023-04-30T00:41:29.457Z,10.90
2023-04-30T00:43:56.362Z,9.57
2023-04-30T00:46:23.151Z,10.00
2023-04-30T00:48:50.147Z,9.90
2023-04-30T00:51:16.764Z,9.57
2023-04-30T00:53:43.811Z,9.07
2023-04-30T00:56:11.656Z,9.20
2023-04-30T00:58:38.386Z,9.90
2023-04-30T01:01:05.401Z,8.53
2023-04-30T01:03:32.274Z,10.07
2023-04-30T01:05:58.846Z,9.07
2023-04-30T01:08:26.427Z,8.53
2023-04-30T01:11:11.526Z,9.50
2023-04-30T01:14:03.016Z,9.50
2023-04-30T01:16:33.879Z,9.63
2023-04-30T01:19:05.634Z,10.10
2023-04-30T01:21:33.603Z,9.13
2023-04-30T01:24:23.153Z,9.00
2023-04-30T01:27:25.315Z,9.80
2023-04-30T01:29:52.861Z,9.30
2023-04-30T01:32:19.509Z,9.73
2023-04-30T01:34:46.013Z,9.07
2023-04-30T01:37:22.659Z,9.70
2023-04-30T01:39:58.389Z,8.60
2023-04-30T01:42:36.120Z,8.73
2023-04-30T01:45:18.873Z,9.23
2023-04-30T01:47:48.629Z,9.53
2023-04-30T01:50:27.200Z,9.63
2023-04-30T01:52:57.236Z,9.73
2023-04-30T01:55:28.916Z,9.73
2023-04-30T01:58:03.915Z,9.20
2023-04-30T02:00:33.191Z,9.30
2023-04-30T02:03:00.058Z,8.50
2023-04-30T02:05:26.792Z,9.50
2023-04-30T02:07:53.538Z,9.83
2023-04-30T02:10:23.873Z,9.40
2023-04-30T02:12:50.600Z,9.67
2023-04-30T02:15:17.299Z,9.77
2023-04-30T02:17:43.781Z,8.97
2023-04-30T02:20:10.953Z,9.13
2023-04-30T02:22:37.538Z,10.70
2023-04-30T02:25:04.401Z,9.30
2023-04-30T02:27:32.091Z,8.80
2023-04-30T02:29:59.198Z,9.40
2023-04-30T02:32:26.137Z,9.53
2023-04-30T02:34:52.609Z,9.70
2023-04-30T02:37:19.242Z,10.40
2023-04-30T02:39:46.348Z,12.10
2023-04-30T02:42:13.086Z,10.43
2023-04-30T02:44:42.578Z,8.80
2023-04-30T02:47:09.221Z,8.77
2023-04-30T02:49:35.930Z,9.57
2023-04-30T02:52:02.535Z,9.50
2023-04-30T02:54:29.237Z,10.20
2023-04-30T02:56:56.108Z,9.50
2023-04-30T02:59:22.953Z,8.80
2023-04-30T03:01:49.532Z,11.00
2023-04-30T03:04:16.280Z,10.60
2023-04-30T03:06:42.942Z,9.10
2023-04-30T03:09:09.711Z,10.00
2023-04-30T03:11:37.713Z,9.20
2023-04-30T03:14:07.707Z,10.53
2023-04-30T03:16:34.288Z,9.83
2023-04-30T03:19:01.110Z,9.97
2023-04-30T03:21:27.563Z,10.87
2023-04-30T03:23:54.020Z,10.20
2023-04-30T03:26:20.961Z,10.60
2023-04-30T03:28:47.664Z,10.67
2023-04-30T03:31:14.167Z,10.27
2023-04-30T03:33:40.818Z,11.77
2023-04-30T03:36:07.488Z,10.90
2023-04-30T03:38:33.926Z,11.43
2023-04-30T03:41:00.495Z,11.27
2023-04-30T03:43:26.997Z,9.70
2023-04-30T03:45:53.597Z,11.27
2023-04-30T03:48:20.475Z,10.60
2023-04-30T03:50:47.144Z,10.10
2023-04-30T03:53:13.727Z,9.70
2023-04-30T03:55:40.276Z,10.90
2023-04-30T03:58:06.835Z,11.60
2023-04-30T04:00:33.368Z,10.17
2023-04-30T04:02:59.996Z,11.20
2023-04-30T04:05:26.790Z,11.37
2023-04-30T04:07:53.411Z,11.03
2023-04-30T04:10:19.924Z,11.00
2023-04-30T04:12:46.651Z,12.13
2023-04-30T04:15:13.462Z,10.30
2023-04-30T04:17:40.177Z,11.03
2023-04-30T04:20:07.613Z,11.47
2023-04-30T04:22:34.082Z,9.80
2023-04-30T04:25:01.354Z,9.20
2023-04-30T04:27:27.865Z,9.90
2023-04-30T04:29:55.162Z,10.30
2023-04-30T04:32:22.788Z,10.27
2023-04-30T04:34:49.669Z,10.87
2023-04-30T04:37:17.595Z,10.63
2023-04-30T04:39:45.066Z,9.10
2023-04-30T04:42:12.032Z,11.83
2023-04-30T04:44:38.589Z,9.30
2023-04-30T04:47:05.271Z,9.40
2023-04-30T04:49:31.829Z,10.60
2023-04-30T04:51:58.340Z,10.50
2023-04-30T04:54:24.926Z,10.73
2023-04-30T04:56:51.750Z,9.87
2023-04-30T04:59:18.927Z,10.00
2023-04-30T05:01:45.629Z,10.30
2023-04-30T05:04:13.814Z,10.70
2023-04-30T05:06:41.590Z,9.43
2023-04-30T05:09:09.593Z,10.70
2023-04-30T05:11:36.297Z,9.37
2023-04-30T05:14:03.163Z,8.77
2023-04-30T05:16:30.215Z,9.50
2023-04-30T05:18:56.720Z,11.03
2023-04-30T05:21:23.295Z,10.93
2023-04-30T05:23:50.084Z,11.50
2023-04-30T05:26:16.579Z,11.27
2023-04-30T05:28:43.089Z,11.70
2023-04-30T05:31:09.558Z,11.97
2023-04-30T05:33:37.143Z,12.40
2023-04-30T05:36:04.037Z,11.40
2023-04-30T05:38:30.571Z,12.83
2023-04-30T05:40:56.984Z,13.20
2023-04-30T05:43:23.563Z,12.57
2023-04-30T05:45:50.075Z,13.57
2023-04-30T05:48:16.683Z,12.50
2023-04-30T05:50:43.525Z,14.53
2023-04-30T05:53:10.468Z,13.83
2023-04-30T05:55:36.980Z,13.83
2023-04-30T05:58:03.666Z,12.30
2023-04-30T06:00:30.130Z,14.00
2023-04-30T06:02:56.604Z,13.60
2023-04-30T06:05:23.218Z,13.60
2023-04-30T06:07:52.119Z,14.00
2023-04-30T06:10:18.658Z,15.13
2023-04-30T06:12:45.238Z,13.90
2023-04-30T06:15:12.066Z,16.13
2023-04-30T06:17:38.637Z,14.30
2023-04-30T06:20:07.220Z,13.63
2023-04-30T06:22:34.308Z,14.80
2023-04-30T06:25:01.552Z,14.50
2023-04-30T06:27:28.078Z,14.43
2023-04-30T06:29:54.884Z,15.13
2023-04-30T06:32:21.593Z,15.00
2023-04-30T06:34:48.203Z,15.30
2023-04-30T06:37:14.773Z,13.20
2023-04-30T06:39:41.232Z,13.63
2023-04-30T06:42:07.683Z,13.87
2023-04-30T06:44:34.262Z,15.00
2023-04-30T06:47:00.728Z,14.00
2023-04-30T06:49:27.295Z,14.40
2023-04-30T06:51:55.696Z,13.93
2023-04-30T06:54:22.872Z,13.90
2023-04-30T06:56:49.618Z,13.17
2023-04-30T06:59:16.604Z,14.30
2023-04-30T07:01:43.428Z,12.60
2023-04-30T07:04:10.005Z,12.63
2023-04-30T07:06:37.114Z,12.80
2023-04-30T07:09:03.812Z,13.47
2023-04-30T07:11:30.604Z,13.53
2023-04-30T07:13:57.133Z,11.90
2023-04-30T07:16:25.479Z,12.27
2023-04-30T07:18:52.423Z,12.10
2023-04-30T07:21:18.989Z,11.50
2023-04-30T07:23:45.648Z,12.37
2023-04-30T07:26:12.188Z,11.83
2023-04-30T07:28:39.167Z,12.17
2023-04-30T07:31:05.987Z,13.00
2023-04-30T07:33:33.325Z,12.70
2023-04-30T07:35:59.789Z,13.37
2023-04-30T07:38:26.401Z,12.73
2023-04-30T07:40:52.886Z,13.10
2023-04-30T07:43:19.373Z,12.20
2023-04-30T07:45:46.033Z,11.57
2023-04-30T07:48:12.808Z,12.73
2023-04-30T07:50:39.250Z,12.97
2023-04-30T07:53:09.243Z,11.10
2023-04-30T07:55:35.936Z,11.87
2023-04-30T07:58:03.741Z,11.30
2023-04-30T08:00:31.160Z,10.03
2023-04-30T08:02:58.885Z,10.30
2023-04-30T08:05:25.438Z,8.83
2023-04-30T08:07:51.950Z,10.87
2023-04-30T08:10:18.454Z,10.53
2023-04-30T08:12:45.140Z,10.20
2023-04-30T08:15:11.597Z,9.77
2023-04-30T08:17:38.104Z,9.93
2023-04-30T08:20:05.229Z,9.10
2023-04-30T08:22:31.822Z,8.30
2023-04-30T08:24:58.408Z,9.00
2023-04-30T08:27:24.846Z,9.40
2023-04-30T08:29:51.341Z,10.75
2023-04-30T08:32:19.159Z,9.70
2023-04-30T08:34:46.323Z,7.70
2023-04-30T08:37:12.866Z,9.07
2023-04-30T08:39:39.561Z,7.87
2023-04-30T08:42:08.983Z,8.20
2023-04-30T08:44:39.696Z,7.70
2023-04-30T08:47:06.977Z,8.43
2023-04-30T08:49:33.916Z,8.90
2023-04-30T08:52:01.135Z,7.13
2023-04-30T08:54:33.418Z,7.03
2023-04-30T08:56:59.906Z,7.30
2023-04-30T08:59:26.383Z,6.70
2023-04-30T09:01:53.943Z,6.57
2023-04-30T09:04:20.949Z,6.27
2023-04-30T09:06:47.602Z,5.90
2023-04-30T09:09:16.036Z,5.10
2023-04-30T09:11:43.123Z,5.13
2023-04-30T09:14:10.102Z,5.87
2023-04-30T09:16:47.081Z,6.73
2023-04-30T09:19:24.768Z,6.20
2023-04-30T09:21:51.280Z,4.80
2023-04-30T09:24:18.700Z,5.03
2023-04-30T09:26:47.288Z,6.00
2023-04-30T09:29:14.057Z,4.90
2023-04-30T09:31:47.229Z,4.60
2023-04-30T09:34:14.992Z,4.77
2023-04-30T09:36:57.208Z,4.40
2023-04-30T09:39:24.009Z,5.90
2023-04-30T09:41:51.710Z,4.77
2023-04-30T09:44:32.921Z,5.70
2023-04-30T09:46:59.898Z,5.00
2023-04-30T09:49:27.564Z,5.60
2023-04-30T09:51:58.986Z,4.93
2023-04-30T09:54:29.413Z,5.53
2023-04-30T09:56:58.088Z,5.83
2023-04-30T09:59:33.935Z,4.90
2023-04-30T10:02:01.913Z,5.50
2023-04-30T10:04:32.074Z,6.10
2023-04-30T10:07:01.652Z,6.07
2023-04-30T10:09:34.578Z,5.30
2023-04-30T10:12:03.901Z,4.60
2023-04-30T10:14:31.201Z,5.50
2023-04-30T10:17:04.424Z,5.63
2023-04-30T10:19:32.319Z,5.40
2023-04-30T10:21:59.545Z,5.50
2023-04-30T10:24:27.166Z,5.43
2023-04-30T10:26:54.994Z,4.50
2023-04-30T10:29:21.497Z,5.67
2023-04-30T10:31:49.562Z,5.80
2023-04-30T10:34:34.772Z,4.97
2023-04-30T10:37:07.723Z,5.60
2023-04-30T10:39:35.438Z,5.57
2023-04-30T10:42:06.844Z,4.93
2023-04-30T10:44:35.177Z,5.23
2023-04-30T10:47:03.231Z,5.30
2023-04-30T10:49:30.378Z,5.50
2023-04-30T10:52:00.741Z,5.50
2023-04-30T10:54:29.087Z,4.40
2023-04-30T10:57:12.637Z,5.00
2023-04-30T10:59:45.008Z,5.60
2023-04-30T11:02:12.960Z,4.83
2023-04-30T11:05:08.924Z,4.70
2023-04-30T11:07:36.107Z,12.30
2023-04-30T11:10:03.125Z,7.70
2023-04-30T11:12:29.721Z,5.10
2023-04-30T11:15:08.500Z,5.07
2023-04-30T11:17:35.082Z,47.33
2023-04-30T11:20:02.105Z,8.10
2023-04-30T11:22:36.294Z,15.97
2023-04-30T11:25:05.514Z,5.60
2023-04-30T11:27:34.003Z,4.90
2023-04-30T11:30:01.500Z,6.50
2023-04-30T11:32:35.725Z,4.60
2023-04-30T11:35:04.242Z,5.70
2023-04-30T11:37:32.481Z,5.10
2023-04-30T11:40:01.280Z,5.40
2023-04-30T11:42:30.111Z,4.20
2023-04-30T11:45:09.327Z,5.00
2023-04-30T11:47:46.536Z,4.87
2023-04-30T11:50:15.116Z,4.87
2023-04-30T11:52:42.634Z,4.90
2023-04-30T11:55:16.712Z,4.20
2023-04-30T11:57:44.951Z,5.30
2023-04-30T12:00:13.661Z,4.70
2023-04-30T12:02:41.859Z,4.70
2023-04-30T12:05:18.231Z,4.87
2023-04-30T12:07:47.090Z,3.67
2023-04-30T12:10:13.925Z,4.47
2023-04-30T12:12:43.005Z,4.80
2023-04-30T12:15:13.754Z,3.70
2023-04-30T12:17:40.666Z,4.20
2023-04-30T12:20:09.392Z,3.50
2023-04-30T12:22:37.126Z,3.57
2023-04-30T12:25:09.859Z,3.77
2023-04-30T12:27:36.613Z,4.40
2023-04-30T12:30:08.057Z,2.80
2023-04-30T12:32:54.601Z,2.63
2023-04-30T12:35:23.331Z,2.60
2023-04-30T12:38:01.116Z,3.43
2023-04-30T12:40:27.982Z,3.10
2023-04-30T12:43:05.517Z,3.80
2023-04-30T12:45:45.584Z,4.40
2023-04-30T12:48:14.561Z,3.80
2023-04-30T12:50:41.674Z,3.67
2023-04-30T12:53:08.184Z,2.77
2023-04-30T12:55:37.365Z,2.93
2023-04-30T12:58:11.416Z,3.90
2023-04-30T13:00:44.760Z,3.37
2023-04-30T13:03:12.717Z,3.20
2023-04-30T13:05:44.380Z,2.77
2023-04-30T13:08:10.883Z,2.80
2023-04-30T13:10:37.990Z,3.00
2023-04-30T13:13:04.418Z,2.60
2023-04-30T13:15:31.357Z,2.73
2023-04-30T13:17:58.003Z,2.87
2023-04-30T13:20:25.195Z,2.77
2023-04-30T13:22:52.013Z,3.60
2023-04-30T13:25:18.883Z,2.90
2023-04-30T13:27:45.437Z,3.20
2023-04-30T13:30:12.533Z,2.77
2023-04-30T13:32:39.023Z,2.50
2023-04-30T13:35:06.372Z,2.83
2023-04-30T13:37:32.949Z,2.83
2023-04-30T13:40:01.432Z,2.97
2023-04-30T13:42:27.902Z,2.80
2023-04-30T13:44:54.497Z,2.67
2023-04-30T13:47:21.724Z,2.10
2023-04-30T13:49:48.208Z,2.50
2023-04-30T13:52:14.728Z,2.47
2023-04-30T13:54:41.484Z,2.50
2023-04-30T13:57:07.974Z,2.53
2023-04-30T13:59:34.680Z,1.97
2023-04-30T14:02:01.358Z,2.07
2023-04-30T14:04:27.918Z,2.03
2023-04-30T14:06:56.653Z,2.23
2023-04-30T14:09:23.253Z,1.80
2023-04-30T14:11:49.787Z,2.40
2023-04-30T14:14:16.245Z,2.47
2023-04-30T14:16:44.235Z,2.83
2023-04-30T14:19:11.094Z,2.10
2023-04-30T14:21:37.518Z,2.17
2023-04-30T14:24:04.817Z,1.80
2023-04-30T14:26:31.540Z,1.70
2023-04-30T14:28:58.150Z,1.90
2023-04-30T14:31:24.978Z,1.63
2023-04-30T14:33:51.498Z,1.77
2023-04-30T14:36:19.621Z,1.70
2023-04-30T14:38:46.299Z,1.73
2023-04-30T14:41:12.983Z,1.90
2023-04-30T14:43:40.460Z,1.40
2023-04-30T14:46:07.490Z,2.00
2023-04-30T14:48:34.056Z,2.13
2023-04-30T14:51:01.368Z,2.13
2023-04-30T14:53:27.864Z,2.17
2023-04-30T14:55:54.302Z,2.00
2023-04-30T14:58:20.911Z,1.90
2023-04-30T15:00:48.328Z,1.87
2023-04-30T15:03:15.008Z,1.70
2023-04-30T15:05:41.671Z,1.80
2023-04-30T15:08:08.220Z,1.60
2023-04-30T15:10:35.362Z,1.90
2023-04-30T15:13:05.098Z,1.73
2023-04-30T15:15:31.606Z,1.60
2023-04-30T15:17:58.734Z,2.80
2023-04-30T15:20:25.254Z,1.97
2023-04-30T15:22:53.681Z,2.00
2023-04-30T15:25:21.938Z,4.43
2023-04-30T15:27:48.408Z,2.93
2023-04-30T15:30:15.010Z,3.90
2023-04-30T15:32:41.724Z,2.07
2023-04-30T15:35:08.709Z,1.70
2023-04-30T15:37:35.434Z,1.43
2023-04-30T15:40:02.047Z,2.40
2023-04-30T15:42:28.698Z,1.60
2023-04-30T15:44:55.481Z,1.60
2023-04-30T15:47:24.010Z,1.57
2023-04-30T15:49:50.749Z,2.03
2023-04-30T15:52:17.638Z,1.70
2023-04-30T15:54:44.162Z,1.57
2023-04-30T15:57:10.630Z,1.70
2023-04-30T15:59:37.302Z,1.70
2023-04-30T16:02:04.971Z,1.60
2023-04-30T16:04:31.477Z,2.00
2023-04-30T16:07:01.028Z,1.73
2023-04-30T16:09:27.878Z,1.77
2023-04-30T16:11:55.874Z,1.73
2023-04-30T16:14:22.468Z,1.60
2023-04-30T16:16:49.389Z,2.13
2023-04-30T16:19:17.139Z,1.87
2023-04-30T16:21:44.807Z,1.83
2023-04-30T16:24:11.810Z,1.60
2023-04-30T16:26:38.319Z,1.43
2023-04-30T16:29:05.045Z,2.30
2023-04-30T16:31:32.512Z,1.90
2023-04-30T16:33:59.023Z,1.10
2023-04-30T16:36:25.734Z,1.80
2023-04-30T16:38:52.323Z,1.67
2023-04-30T16:41:19.091Z,1.77
2023-04-30T16:43:45.748Z,1.63
2023-04-30T16:46:12.364Z,2.10
2023-04-30T16:48:39.589Z,1.93
2023-04-30T16:51:07.523Z,2.17
2023-04-30T16:53:34.266Z,1.60
2023-04-30T16:56:00.801Z,2.10
2023-04-30T16:58:27.612Z,1.60
2023-04-30T17:00:56.141Z,1.80
2023-04-30T17:03:23.933Z,1.98
2023-04-30T17:05:52.131Z,2.10
2023-04-30T17:08:20.113Z,2.53
2023-04-30T17:10:47.593Z,1.67
2023-04-30T17:13:14.297Z,2.00
2023-04-30T17:15:41.120Z,2.20
2023-04-30T17:18:09.552Z,2.10
2023-04-30T17:20:36.098Z,3.03
2023-04-30T17:23:03.280Z,3.20
2023-04-30T17:25:31.746Z,2.00
2023-04-30T17:28:01.479Z,2.40
2023-04-30T17:30:28.888Z,2.80
2023-04-30T17:32:56.340Z,3.13
2023-04-30T17:35:23.196Z,2.50
2023-04-30T17:37:50.112Z,2.10
2023-04-30T17:40:16.840Z,2.73
2023-04-30T17:42:43.916Z,2.73
2023-04-30T17:45:10.948Z,3.10
2023-04-30T17:47:37.798Z,2.60
2023-04-30T17:50:08.369Z,2.80
2023-04-30T17:52:38.318Z,3.73
2023-04-30T17:55:08.804Z,2.77
2023-04-30T17:57:35.927Z,2.63
2023-04-30T18:00:04.524Z,2.30
2023-04-30T18:02:31.540Z,2.47
2023-04-30T18:04:57.977Z,2.13
2023-04-30T18:07:24.570Z,3.03
2023-04-30T18:09:52.470Z,3.67
2023-04-30T18:12:19.060Z,2.70
2023-04-30T18:14:45.765Z,2.60
2023-04-30T18:17:12.426Z,2.40
2023-04-30T18:19:43.892Z,2.50
2023-04-30T18:22:12.372Z,2.37
2023-04-30T18:24:39.546Z,6.03
2023-04-30T18:27:06.899Z,5.60
2023-04-30T18:29:33.998Z,3.67
2023-04-30T18:32:00.547Z,3.10
2023-04-30T18:34:28.158Z,3.00
2023-04-30T18:36:54.787Z,3.10
2023-04-30T18:39:24.316Z,2.63
2023-04-30T18:41:51.175Z,2.80
2023-04-30T18:44:17.979Z,2.90
2023-04-30T18:46:44.513Z,3.10
2023-04-30T18:49:11.051Z,2.80
2023-04-30T18:51:37.770Z,2.70
2023-04-30T18:54:04.341Z,3.27
2023-04-30T18:56:30.842Z,2.90
2023-04-30T18:58:57.728Z,2.93
2023-04-30T19:01:27.250Z,4.23
2023-04-30T19:03:54.175Z,3.63
2023-04-30T19:06:20.935Z,3.83
2023-04-30T19:08:47.481Z,4.00
2023-04-30T19:11:13.958Z,4.17
2023-04-30T19:13:40.524Z,4.90
2023-04-30T19:16:06.969Z,4.30
2023-04-30T19:18:34.983Z,4.37
2023-04-30T19:21:02.346Z,3.80
2023-04-30T19:23:30.794Z,3.60
2023-04-30T19:26:00.618Z,3.40
2023-04-30T19:28:27.395Z,4.53
2023-04-30T19:30:54.961Z,4.10
2023-04-30T19:33:22.471Z,4.23
2023-04-30T19:35:49.983Z,4.47
2023-04-30T19:38:17.079Z,4.40
2023-04-30T19:40:52.327Z,4.03
2023-04-30T19:43:20.398Z,4.63
2023-04-30T19:45:49.857Z,4.43
2023-04-30T19:48:16.467Z,4.80
2023-04-30T19:50:45.227Z,4.33
2023-04-30T19:53:12.088Z,4.30
2023-04-30T19:55:38.863Z,5.17
2023-04-30T19:58:05.619Z,5.40
2023-04-30T20:00:37.066Z,5.93
2023-04-30T20:03:06.997Z,8.50
2023-04-30T20:05:35.149Z,6.90
2023-04-30T20:08:03.388Z,6.83
2023-04-30T20:10:31.296Z,6.60
2023-04-30T20:12:57.746Z,7.73
2023-04-30T20:15:24.992Z,5.60
2023-04-30T20:17:52.819Z,6.20
2023-04-30T20:20:20.934Z,6.40
2023-04-30T20:22:50.266Z,6.00
2023-04-30T20:25:16.916Z,6.20
2023-04-30T20:27:43.758Z,6.27
2023-04-30T20:30:11.620Z,4.23
2023-04-30T20:32:39.133Z,3.60
2023-04-30T20:35:11.779Z,3.87
2023-04-30T20:37:38.492Z,4.50
2023-04-30T20:40:08.130Z,5.30
2023-04-30T20:42:36.665Z,4.30
2023-04-30T20:45:05.946Z,5.03
2023-04-30T20:47:32.606Z,5.53
2023-04-30T20:49:59.078Z,5.63
2023-04-30T20:52:26.099Z,4.80
2023-04-30T20:54:52.750Z,5.00
2023-04-30T20:57:19.296Z,4.40
2023-04-30T20:59:45.813Z,5.73
2023-04-30T21:02:12.317Z,5.50
2023-04-30T21:04:38.790Z,6.10
2023-04-30T21:07:05.576Z,6.60
2023-04-30T21:09:34.534Z,5.67
2023-04-30T21:12:04.325Z,6.80
2023-04-30T21:14:31.434Z,6.03
2023-04-30T21:16:59.200Z,5.70
2023-04-30T21:19:26.504Z,5.60
2023-04-30T21:21:53.138Z,6.20
2023-04-30T21:24:19.720Z,5.50
2023-04-30T21:26:46.645Z,5.77
2023-04-30T21:29:13.092Z,5.30
2023-04-30T21:31:39.897Z,5.17
2023-04-30T21:34:06.351Z,5.80
2023-04-30T21:36:33.304Z,5.20
2023-04-30T21:38:59.809Z,4.63
2023-04-30T21:41:27.950Z,5.40
2023-04-30T21:43:54.900Z,5.20
2023-04-30T21:46:22.604Z,5.60
2023-04-30T21:48:49.131Z,4.63
2023-04-30T21:51:17.441Z,5.80
2023-04-30T21:53:45.467Z,4.53
2023-04-30T21:56:12.362Z,5.10
2023-04-30T21:58:39.228Z,5.40
2023-04-30T22:01:05.816Z,4.30
2023-04-30T22:03:32.754Z,4.47
2023-04-30T22:05:59.892Z,3.80
2023-04-30T22:08:26.613Z,4.13
2023-04-30T22:10:58.825Z,3.90
2023-04-30T22:13:28.747Z,4.10
2023-04-30T22:15:56.643Z,4.80
2023-04-30T22:18:24.583Z,4.43
2023-04-30T22:20:51.953Z,4.30
2023-04-30T22:23:21.117Z,5.30
2023-04-30T22:25:47.912Z,4.20
2023-04-30T22:28:16.936Z,4.73
2023-04-30T22:30:43.848Z,3.87
2023-04-30T22:33:10.512Z,4.50
2023-04-30T22:35:40.237Z,4.67
2023-04-30T22:38:07.824Z,4.23
2023-04-30T22:40:35.395Z,5.13
2023-04-30T22:43:02.253Z,4.90
2023-04-30T22:45:31.843Z,5.40
2023-04-30T22:48:01.333Z,4.90
2023-04-30T22:50:28.423Z,4.50
2023-04-30T22:52:56.252Z,4.50
2023-04-30T22:55:22.807Z,4.50
2023-04-30T22:57:49.852Z,5.53
2023-04-30T23:00:18.177Z,4.10
2023-04-30T23:02:44.916Z,3.90
2023-04-30T23:05:12.858Z,4.27
2023-04-30T23:07:39.647Z,4.80
2023-04-30T23:10:07.058Z,4.17
2023-04-30T23:12:35.601Z,5.57
2023-04-30T23:15:02.099Z,4.63
2023-04-30T23:17:28.857Z,5.80
2023-04-30T23:19:55.572Z,4.83
2023-04-30T23:22:22.331Z,4.40
2023-04-30T23:24:48.851Z,4.60
2023-04-30T23:27:15.375Z,4.13
2023-04-30T23:29:42.892Z,4.63
2023-04-30T23:32:09.548Z,4.60
2023-04-30T23:34:36.146Z,3.90
2023-04-30T23:37:02.941Z,4.10
2023-04-30T23:39:29.695Z,4.20
2023-04-30T23:41:56.674Z,4.60
2023-04-30T23:44:23.322Z,4.87
2023-04-30T23:46:51.031Z,4.90
2023-04-30T23:49:18.272Z,4.23
2023-04-30T23:51:45.740Z,4.50
2023-04-30T23:54:12.449Z,4.40
2023-04-30T23:56:38.950Z,4.20
2023-04-30T23:59:05.661Z,4.67
